sensor_id;sensor_type;location;lat;lon;timestamp;temperature;humidity
9225;DHT22;4647;48.072;11.616;2022-09-23T00:02:05;3.00;99.90
9225;DHT22;4647;48.072;11.616;2022-09-23T00:04:32;3.00;99.90
9225;DHT22;4647;48.072;11.616;2022-09-23T00:06:59;2.90;99.90
9225;DHT22;4647;48.072;11.616;2022-09-23T00:09:26;2.90;99.90
9225;DHT22;4647;48.072;11.616;2022-09-23T00:11:52;2.90;99.90
9225;DHT22;4647;48.072;11.616;2022-09-23T00:14:21;2.90;99.90
9225;DHT22;4647;48.072;11.616;2022-09-23T00:16:49;3.00;99.90
9225;DHT22;4647;48.072;11.616;2022-09-23T00:19:15;3.00;99.90
9225;DHT22;4647;48.072;11.616;2022-09-23T00:21:42;3.00;99.90
9225;DHT22;4647;48.072;11.616;2022-09-23T00:24:09;3.00;99.90
9225;DHT22;4647;48.072;11.616;2022-09-23T00:26:36;3.00;99.90
9225;DHT22;4647;48.072;11.616;2022-09-23T00:29:03;2.90;99.90
9225;DHT22;4647;48.072;11.616;2022-09-23T00:31:31;2.80;99.90
9225;DHT22;4647;48.072;11.616;2022-09-23T00:33:59;2.70;99.90
9225;DHT22;4647;48.072;11.616;2022-09-23T00:36:27;2.80;99.90
9225;DHT22;4647;48.072;11.616;2022-09-23T00:38:55;2.70;99.90
9225;DHT22;4647;48.072;11.616;2022-09-23T00:41:22;2.70;99.90
9225;DHT22;4647;48.072;11.616;2022-09-23T00:43:51;2.60;99.90
9225;DHT22;4647;48.072;11.616;2022-09-23T00:46:20;2.70;99.90
9225;DHT22;4647;48.072;11.616;2022-09-23T00:48:53;2.70;99.90
9225;DHT22;4647;48.072;11.616;2022-09-23T00:51:23;2.70;99.90
9225;DHT22;4647;48.072;11.616;2022-09-23T00:53:51;2.70;99.90
9225;DHT22;4647;48.072;11.616;2022-09-23T00:56:19;2.60;99.90
9225;DHT22;4647;48.072;11.616;2022-09-23T00:58:48;2.60;99.90
9225;DHT22;4647;48.072;11.616;2022-09-23T01:01:16;2.60;99.90
9225;DHT22;4647;48.072;11.616;2022-09-23T01:03:44;2.60;99.90
9225;DHT22;4647;48.072;11.616;2022-09-23T01:06:13;2.60;99.90
9225;DHT22;4647;48.072;11.616;2022-09-23T01:08:40;2.60;99.90
9225;DHT22;4647;48.072;11.616;2022-09-23T01:11:20;2.50;99.90
9225;DHT22;4647;48.072;11.616;2022-09-23T01:13:58;2.50;99.90
9225;DHT22;4647;48.072;11.616;2022-09-23T01:16:31;2.60;99.90
9225;DHT22;4647;48.072;11.616;2022-09-23T01:19:08;2.50;99.90
9225;DHT22;4647;48.072;11.616;2022-09-23T01:21:48;2.50;99.90
9225;DHT22;4647;48.072;11.616;2022-09-23T01:24:47;2.50;99.90
9225;DHT22;4647;48.072;11.616;2022-09-23T01:30:17;2.40;99.90
9225;DHT22;4647;48.072;11.616;2022-09-23T01:32:58;2.40;99.90
9225;DHT22;4647;48.072;11.616;2022-09-23T01:35:37;2.40;99.90
9225;DHT22;4647;48.072;11.616;2022-09-23T01:38:13;2.40;99.90
9225;DHT22;4647;48.072;11.616;2022-09-23T01:40:47;2.40;99.90
9225;DHT22;4647;48.072;11.616;2022-09-23T01:43:22;2.30;99.90
9225;DHT22;4647;48.072;11.616;2022-09-23T01:45:53;2.30;99.90
9225;DHT22;4647;48.072;11.616;2022-09-23T01:48:28;2.30;99.90
9225;DHT22;4647;48.072;11.616;2022-09-23T01:50:59;2.20;99.90
9225;DHT22;4647;48.072;11.616;2022-09-23T01:53:32;2.20;99.90
9225;DHT22;4647;48.072;11.616;2022-09-23T01:56:08;2.10;99.90
9225;DHT22;4647;48.072;11.616;2022-09-23T01:58:39;2.10;99.90
9225;DHT22;4647;48.072;11.616;2022-09-23T02:01:10;2.00;99.90
9225;DHT22;4647;48.072;11.616;2022-09-23T02:03:46;1.90;99.90
9225;DHT22;4647;48.072;11.616;2022-09-23T02:06:18;1.90;99.90
9225;DHT22;4647;48.072;11.616;2022-09-23T02:08:50;1.90;99.90
9225;DHT22;4647;48.072;11.616;2022-09-23T02:11:19;1.70;99.90
9225;DHT22;4647;48.072;11.616;2022-09-23T02:13:50;1.60;99.90
9225;DHT22;4647;48.072;11.616;2022-09-23T02:16:24;1.50;99.90
9225;DHT22;4647;48.072;11.616;2022-09-23T02:18:56;1.50;99.90
9225;DHT22;4647;48.072;11.616;2022-09-23T02:21:28;1.60;99.90
9225;DHT22;4647;48.072;11.616;2022-09-23T02:24:03;1.50;99.90
9225;DHT22;4647;48.072;11.616;2022-09-23T02:26:36;1.60;99.90
9225;DHT22;4647;48.072;11.616;2022-09-23T02:29:16;1.50;99.90
9225;DHT22;4647;48.072;11.616;2022-09-23T02:31:50;1.60;99.90
9225;DHT22;4647;48.072;11.616;2022-09-23T02:34:30;1.50;99.90
9225;DHT22;4647;48.072;11.616;2022-09-23T02:37:06;1.50;99.90
9225;DHT22;4647;48.072;11.616;2022-09-23T02:39:54;1.60;99.90
9225;DHT22;4647;48.072;11.616;2022-09-23T02:42:30;1.50;99.90
9225;DHT22;4647;48.072;11.616;2022-09-23T02:44:59;1.60;99.90
9225;DHT22;4647;48.072;11.616;2022-09-23T02:47:29;1.60;99.90
9225;DHT22;4647;48.072;11.616;2022-09-23T02:50:00;1.70;99.90
9225;DHT22;4647;48.072;11.616;2022-09-23T02:52:27;1.80;99.90
9225;DHT22;4647;48.072;11.616;2022-09-23T02:54:55;1.70;99.90
9225;DHT22;4647;48.072;11.616;2022-09-23T02:57:22;1.60;99.90
9225;DHT22;4647;48.072;11.616;2022-09-23T02:59:49;1.60;99.90
9225;DHT22;4647;48.072;11.616;2022-09-23T03:02:31;1.60;99.90
9225;DHT22;4647;48.072;11.616;2022-09-23T03:05:07;1.60;99.90
9225;DHT22;4647;48.072;11.616;2022-09-23T03:07:44;1.70;99.90
9225;DHT22;4647;48.072;11.616;2022-09-23T03:10:20;1.70;99.90
9225;DHT22;4647;48.072;11.616;2022-09-23T03:12:53;1.80;99.90
9225;DHT22;4647;48.072;11.616;2022-09-23T03:15:28;1.80;99.90
9225;DHT22;4647;48.072;11.616;2022-09-23T03:18:06;1.90;99.90
9225;DHT22;4647;48.072;11.616;2022-09-23T03:20:38;2.00;99.90
9225;DHT22;4647;48.072;11.616;2022-09-23T03:23:11;1.90;99.90
9225;DHT22;4647;48.072;11.616;2022-09-23T03:25:42;2.00;99.90
9225;DHT22;4647;48.072;11.616;2022-09-23T03:28:12;1.90;99.90
9225;DHT22;4647;48.072;11.616;2022-09-23T03:30:40;1.80;99.90
9225;DHT22;4647;48.072;11.616;2022-09-23T03:33:10;1.90;99.90
9225;DHT22;4647;48.072;11.616;2022-09-23T03:35:44;1.90;99.90
9225;DHT22;4647;48.072;11.616;2022-09-23T03:38:30;1.80;99.90
9225;DHT22;4647;48.072;11.616;2022-09-23T03:41:02;1.80;99.90
9225;DHT22;4647;48.072;11.616;2022-09-23T03:43:30;1.90;99.90
9225;DHT22;4647;48.072;11.616;2022-09-23T03:45:57;1.80;99.90
9225;DHT22;4647;48.072;11.616;2022-09-23T03:48:25;1.70;99.90
9225;DHT22;4647;48.072;11.616;2022-09-23T03:50:54;1.70;99.90
9225;DHT22;4647;48.072;11.616;2022-09-23T03:53:21;1.80;99.90
9225;DHT22;4647;48.072;11.616;2022-09-23T03:55:47;1.80;99.90
9225;DHT22;4647;48.072;11.616;2022-09-23T03:58:14;1.70;99.90
9225;DHT22;4647;48.072;11.616;2022-09-23T04:00:42;1.70;99.90
9225;DHT22;4647;48.072;11.616;2022-09-23T04:03:09;1.50;99.90
9225;DHT22;4647;48.072;11.616;2022-09-23T04:05:36;1.50;99.90
9225;DHT22;4647;48.072;11.616;2022-09-23T04:08:05;1.50;99.90
9225;DHT22;4647;48.072;11.616;2022-09-23T04:10:32;1.50;99.90
9225;DHT22;4647;48.072;11.616;2022-09-23T04:12:58;1.50;99.90
9225;DHT22;4647;48.072;11.616;2022-09-23T04:15:25;1.60;99.90
9225;DHT22;4647;48.072;11.616;2022-09-23T04:17:52;1.60;99.90
9225;DHT22;4647;48.072;11.616;2022-09-23T04:20:19;1.60;99.90
9225;DHT22;4647;48.072;11.616;2022-09-23T04:22:46;1.50;99.90
9225;DHT22;4647;48.072;11.616;2022-09-23T04:25:14;1.40;99.90
9225;DHT22;4647;48.072;11.616;2022-09-23T04:27:41;1.40;99.90
9225;DHT22;4647;48.072;11.616;2022-09-23T04:30:09;1.40;99.90
9225;DHT22;4647;48.072;11.616;2022-09-23T04:32:36;1.40;99.90
9225;DHT22;4647;48.072;11.616;2022-09-23T04:35:05;1.30;99.90
9225;DHT22;4647;48.072;11.616;2022-09-23T04:37:32;1.30;99.90
9225;DHT22;4647;48.072;11.616;2022-09-23T04:39:59;1.40;99.90
9225;DHT22;4647;48.072;11.616;2022-09-23T04:42:28;1.50;99.90
9225;DHT22;4647;48.072;11.616;2022-09-23T04:44:55;1.50;99.90
9225;DHT22;4647;48.072;11.616;2022-09-23T04:47:22;1.60;99.90
9225;DHT22;4647;48.072;11.616;2022-09-23T04:49:49;1.60;99.90
9225;DHT22;4647;48.072;11.616;2022-09-23T04:52:17;1.60;99.90
9225;DHT22;4647;48.072;11.616;2022-09-23T04:54:43;1.50;99.90
9225;DHT22;4647;48.072;11.616;2022-09-23T04:57:10;1.50;99.90
9225;DHT22;4647;48.072;11.616;2022-09-23T04:59:39;1.40;99.90
9225;DHT22;4647;48.072;11.616;2022-09-23T05:02:05;1.30;99.90
9225;DHT22;4647;48.072;11.616;2022-09-23T05:04:32;1.50;99.90
9225;DHT22;4647;48.072;11.616;2022-09-23T05:07:00;1.60;99.90
9225;DHT22;4647;48.072;11.616;2022-09-23T05:09:27;1.70;99.90
9225;DHT22;4647;48.072;11.616;2022-09-23T05:11:54;1.80;99.90
9225;DHT22;4647;48.072;11.616;2022-09-23T05:14:21;1.90;99.90
9225;DHT22;4647;48.072;11.616;2022-09-23T05:16:49;1.90;99.90
9225;DHT22;4647;48.072;11.616;2022-09-23T05:19:16;2.30;99.90
9225;DHT22;4647;48.072;11.616;2022-09-23T05:21:43;2.10;99.90
9225;DHT22;4647;48.072;11.616;2022-09-23T05:24:11;2.20;99.90
9225;DHT22;4647;48.072;11.616;2022-09-23T05:26:38;2.20;99.90
9225;DHT22;4647;48.072;11.616;2022-09-23T05:29:05;2.30;99.90
9225;DHT22;4647;48.072;11.616;2022-09-23T05:31:33;2.30;99.90
9225;DHT22;4647;48.072;11.616;2022-09-23T05:34:03;2.40;99.90
9225;DHT22;4647;48.072;11.616;2022-09-23T05:36:32;2.50;99.90
9225;DHT22;4647;48.072;11.616;2022-09-23T05:38:59;2.50;99.90
9225;DHT22;4647;48.072;11.616;2022-09-23T05:41:27;2.50;99.90
9225;DHT22;4647;48.072;11.616;2022-09-23T05:43:54;2.60;99.90
9225;DHT22;4647;48.072;11.616;2022-09-23T05:46:24;2.80;99.90
9225;DHT22;4647;48.072;11.616;2022-09-23T05:48:53;2.90;99.90
9225;DHT22;4647;48.072;11.616;2022-09-23T05:51:23;3.00;99.90
9225;DHT22;4647;48.072;11.616;2022-09-23T05:53:52;3.00;99.90
9225;DHT22;4647;48.072;11.616;2022-09-23T05:56:20;3.00;99.90
9225;DHT22;4647;48.072;11.616;2022-09-23T05:58:48;3.10;99.90
9225;DHT22;4647;48.072;11.616;2022-09-23T06:01:17;3.20;99.90
9225;DHT22;4647;48.072;11.616;2022-09-23T06:03:45;3.40;99.90
9225;DHT22;4647;48.072;11.616;2022-09-23T06:06:13;3.50;99.90
9225;DHT22;4647;48.072;11.616;2022-09-23T06:08:41;3.50;99.90
9225;DHT22;4647;48.072;11.616;2022-09-23T06:11:09;3.60;99.90
9225;DHT22;4647;48.072;11.616;2022-09-23T06:13:37;3.70;99.90
9225;DHT22;4647;48.072;11.616;2022-09-23T06:16:05;3.90;99.90
9225;DHT22;4647;48.072;11.616;2022-09-23T06:18:32;4.00;99.90
9225;DHT22;4647;48.072;11.616;2022-09-23T06:21:00;4.10;99.90
9225;DHT22;4647;48.072;11.616;2022-09-23T06:23:28;4.30;99.90
9225;DHT22;4647;48.072;11.616;2022-09-23T06:26:00;4.40;99.90
9225;DHT22;4647;48.072;11.616;2022-09-23T06:28:28;4.60;99.90
9225;DHT22;4647;48.072;11.616;2022-09-23T06:30:57;4.80;99.90
9225;DHT22;4647;48.072;11.616;2022-09-23T06:33:24;4.70;99.90
9225;DHT22;4647;48.072;11.616;2022-09-23T06:35:54;4.80;99.90
9225;DHT22;4647;48.072;11.616;2022-09-23T06:38:21;5.00;99.90
9225;DHT22;4647;48.072;11.616;2022-09-23T06:40:49;5.10;99.90
9225;DHT22;4647;48.072;11.616;2022-09-23T06:43:18;5.20;99.90
9225;DHT22;4647;48.072;11.616;2022-09-23T06:45:46;5.30;99.90
9225;DHT22;4647;48.072;11.616;2022-09-23T06:48:13;5.50;99.90
9225;DHT22;4647;48.072;11.616;2022-09-23T06:50:39;5.70;99.90
9225;DHT22;4647;48.072;11.616;2022-09-23T06:53:06;5.80;99.90
9225;DHT22;4647;48.072;11.616;2022-09-23T06:55:33;6.00;99.90
9225;DHT22;4647;48.072;11.616;2022-09-23T06:58:00;6.10;99.90
9225;DHT22;4647;48.072;11.616;2022-09-23T07:00:28;6.20;99.90
9225;DHT22;4647;48.072;11.616;2022-09-23T07:02:55;6.40;99.90
9225;DHT22;4647;48.072;11.616;2022-09-23T07:05:22;6.60;99.90
9225;DHT22;4647;48.072;11.616;2022-09-23T07:07:49;6.70;99.90
9225;DHT22;4647;48.072;11.616;2022-09-23T07:10:16;6.80;99.90
9225;DHT22;4647;48.072;11.616;2022-09-23T07:12:43;7.00;99.90
9225;DHT22;4647;48.072;11.616;2022-09-23T07:15:10;7.10;99.90
9225;DHT22;4647;48.072;11.616;2022-09-23T07:17:40;7.30;99.90
9225;DHT22;4647;48.072;11.616;2022-09-23T07:20:08;7.40;99.90
9225;DHT22;4647;48.072;11.616;2022-09-23T07:22:36;7.60;99.90
9225;DHT22;4647;48.072;11.616;2022-09-23T07:25:03;7.70;99.90
9225;DHT22;4647;48.072;11.616;2022-09-23T07:27:31;7.90;99.90
9225;DHT22;4647;48.072;11.616;2022-09-23T07:29:58;8.10;99.90
9225;DHT22;4647;48.072;11.616;2022-09-23T07:32:24;8.30;99.90
9225;DHT22;4647;48.072;11.616;2022-09-23T07:34:53;8.50;99.90
9225;DHT22;4647;48.072;11.616;2022-09-23T07:37:20;8.70;99.90
9225;DHT22;4647;48.072;11.616;2022-09-23T07:39:47;8.90;99.90
9225;DHT22;4647;48.072;11.616;2022-09-23T07:42:15;9.00;99.90
9225;DHT22;4647;48.072;11.616;2022-09-23T07:44:42;9.20;99.90
9225;DHT22;4647;48.072;11.616;2022-09-23T07:47:11;9.30;99.90
9225;DHT22;4647;48.072;11.616;2022-09-23T07:49:38;9.40;99.90
9225;DHT22;4647;48.072;11.616;2022-09-23T07:52:09;9.50;99.90
9225;DHT22;4647;48.072;11.616;2022-09-23T07:54:36;9.80;99.90
9225;DHT22;4647;48.072;11.616;2022-09-23T07:57:03;9.90;99.90
9225;DHT22;4647;48.072;11.616;2022-09-23T07:59:30;10.10;99.90
9225;DHT22;4647;48.072;11.616;2022-09-23T08:01:57;10.40;99.90
9225;DHT22;4647;48.072;11.616;2022-09-23T08:04:25;10.40;99.90
9225;DHT22;4647;48.072;11.616;2022-09-23T08:06:55;10.50;99.90
9225;DHT22;4647;48.072;11.616;2022-09-23T08:09:26;10.60;99.90
9225;DHT22;4647;48.072;11.616;2022-09-23T08:11:54;10.70;99.90
9225;DHT22;4647;48.072;11.616;2022-09-23T08:14:21;10.90;99.90
9225;DHT22;4647;48.072;11.616;2022-09-23T08:16:48;11.10;99.90
9225;DHT22;4647;48.072;11.616;2022-09-23T08:19:16;11.30;99.90
9225;DHT22;4647;48.072;11.616;2022-09-23T08:21:43;11.60;99.90
9225;DHT22;4647;48.072;11.616;2022-09-23T08:24:13;11.80;99.90
9225;DHT22;4647;48.072;11.616;2022-09-23T08:26:41;11.90;99.90
9225;DHT22;4647;48.072;11.616;2022-09-23T08:29:11;11.90;99.90
9225;DHT22;4647;48.072;11.616;2022-09-23T08:31:38;12.00;99.90
9225;DHT22;4647;48.072;11.616;2022-09-23T08:34:05;12.30;99.90
9225;DHT22;4647;48.072;11.616;2022-09-23T08:36:32;12.40;99.90
9225;DHT22;4647;48.072;11.616;2022-09-23T08:38:59;12.40;99.90
9225;DHT22;4647;48.072;11.616;2022-09-23T08:41:34;12.40;99.90
9225;DHT22;4647;48.072;11.616;2022-09-23T08:44:10;12.60;99.90
9225;DHT22;4647;48.072;11.616;2022-09-23T08:46:43;12.70;99.90
9225;DHT22;4647;48.072;11.616;2022-09-23T08:49:15;12.80;99.90
9225;DHT22;4647;48.072;11.616;2022-09-23T08:51:47;12.90;99.90
9225;DHT22;4647;48.072;11.616;2022-09-23T08:54:16;13.00;99.90
9225;DHT22;4647;48.072;11.616;2022-09-23T08:56:45;13.10;99.90
9225;DHT22;4647;48.072;11.616;2022-09-23T08:59:18;13.30;99.90
9225;DHT22;4647;48.072;11.616;2022-09-23T09:01:49;13.30;99.90
9225;DHT22;4647;48.072;11.616;2022-09-23T09:04:20;13.40;99.90
9225;DHT22;4647;48.072;11.616;2022-09-23T09:06:51;13.40;99.90
9225;DHT22;4647;48.072;11.616;2022-09-23T09:09:23;13.40;99.90
9225;DHT22;4647;48.072;11.616;2022-09-23T09:11:55;13.50;99.90
9225;DHT22;4647;48.072;11.616;2022-09-23T09:14:29;13.60;99.90
9225;DHT22;4647;48.072;11.616;2022-09-23T09:17:00;13.70;99.90
9225;DHT22;4647;48.072;11.616;2022-09-23T09:22:40;13.70;99.90
9225;DHT22;4647;48.072;11.616;2022-09-23T09:25:18;13.80;99.90
9225;DHT22;4647;48.072;11.616;2022-09-23T09:27:48;13.90;99.90
9225;DHT22;4647;48.072;11.616;2022-09-23T09:30:17;13.90;99.90
9225;DHT22;4647;48.072;11.616;2022-09-23T09:32:46;14.00;99.90
9225;DHT22;4647;48.072;11.616;2022-09-23T09:35:26;14.10;99.90
9225;DHT22;4647;48.072;11.616;2022-09-23T09:37:57;14.20;99.90
9225;DHT22;4647;48.072;11.616;2022-09-23T09:40:26;14.30;99.90
9225;DHT22;4647;48.072;11.616;2022-09-23T09:42:53;14.50;99.90
9225;DHT22;4647;48.072;11.616;2022-09-23T09:45:29;14.60;99.90
9225;DHT22;4647;48.072;11.616;2022-09-23T09:48:05;14.60;99.90
9225;DHT22;4647;48.072;11.616;2022-09-23T09:50:44;14.70;99.90
9225;DHT22;4647;48.072;11.616;2022-09-23T09:53:29;14.80;99.90
9225;DHT22;4647;48.072;11.616;2022-09-23T09:56:02;14.90;99.90
9225;DHT22;4647;48.072;11.616;2022-09-23T09:58:34;14.90;99.90
9225;DHT22;4647;48.072;11.616;2022-09-23T10:01:07;15.20;99.90
9225;DHT22;4647;48.072;11.616;2022-09-23T10:03:38;15.20;99.90
9225;DHT22;4647;48.072;11.616;2022-09-23T10:06:17;15.30;99.90
9225;DHT22;4647;48.072;11.616;2022-09-23T10:09:08;15.40;99.90
9225;DHT22;4647;48.072;11.616;2022-09-23T10:11:35;15.30;99.90
9225;DHT22;4647;48.072;11.616;2022-09-23T10:14:05;15.40;99.90
9225;DHT22;4647;48.072;11.616;2022-09-23T10:16:35;15.50;99.90
9225;DHT22;4647;48.072;11.616;2022-09-23T10:19:03;15.60;99.90
9225;DHT22;4647;48.072;11.616;2022-09-23T10:21:37;15.70;99.90
9225;DHT22;4647;48.072;11.616;2022-09-23T10:24:07;15.80;99.90
9225;DHT22;4647;48.072;11.616;2022-09-23T10:26:40;15.90;99.90
9225;DHT22;4647;48.072;11.616;2022-09-23T10:29:21;15.80;99.90
9225;DHT22;4647;48.072;11.616;2022-09-23T10:32:22;15.90;99.90
9225;DHT22;4647;48.072;11.616;2022-09-23T10:34:53;16.00;99.90
9225;DHT22;4647;48.072;11.616;2022-09-23T10:37:29;16.00;99.90
9225;DHT22;4647;48.072;11.616;2022-09-23T10:39:57;16.30;99.90
9225;DHT22;4647;48.072;11.616;2022-09-23T10:42:55;16.40;99.90
9225;DHT22;4647;48.072;11.616;2022-09-23T10:45:47;16.40;99.90
9225;DHT22;4647;48.072;11.616;2022-09-23T10:48:42;16.50;99.90
9225;DHT22;4647;48.072;11.616;2022-09-23T10:51:18;16.30;99.90
9225;DHT22;4647;48.072;11.616;2022-09-23T10:53:52;16.30;99.90
9225;DHT22;4647;48.072;11.616;2022-09-23T10:56:31;16.40;99.90
9225;DHT22;4647;48.072;11.616;2022-09-23T10:59:35;16.50;99.90
9225;DHT22;4647;48.072;11.616;2022-09-23T11:02:23;16.80;99.90
9225;DHT22;4647;48.072;11.616;2022-09-23T11:05:20;16.80;99.90
9225;DHT22;4647;48.072;11.616;2022-09-23T11:07:58;16.90;99.90
9225;DHT22;4647;48.072;11.616;2022-09-23T11:10:49;16.90;99.20
9225;DHT22;4647;48.072;11.616;2022-09-23T11:13:37;16.70;99.90
9225;DHT22;4647;48.072;11.616;2022-09-23T11:16:16;16.90;99.90
9225;DHT22;4647;48.072;11.616;2022-09-23T11:19:12;17.20;99.30
9225;DHT22;4647;48.072;11.616;2022-09-23T11:21:58;17.40;99.40
9225;DHT22;4647;48.072;11.616;2022-09-23T11:24:50;17.60;98.90
9225;DHT22;4647;48.072;11.616;2022-09-23T11:27:34;17.50;98.70
9225;DHT22;4647;48.072;11.616;2022-09-23T11:30:07;17.40;98.30
9225;DHT22;4647;48.072;11.616;2022-09-23T11:35:42;17.60;97.70
9225;DHT22;4647;48.072;11.616;2022-09-23T11:38:16;17.60;98.60
9225;DHT22;4647;48.072;11.616;2022-09-23T11:40:46;17.60;99.20
9225;DHT22;4647;48.072;11.616;2022-09-23T11:43:21;17.60;98.30
9225;DHT22;4647;48.072;11.616;2022-09-23T11:45:52;17.50;98.60
9225;DHT22;4647;48.072;11.616;2022-09-23T11:48:27;17.70;98.80
9225;DHT22;4647;48.072;11.616;2022-09-23T11:50:58;17.80;98.30
9225;DHT22;4647;48.072;11.616;2022-09-23T11:53:33;17.90;99.00
9225;DHT22;4647;48.072;11.616;2022-09-23T11:56:06;18.20;97.80
9225;DHT22;4647;48.072;11.616;2022-09-23T11:58:38;18.40;98.10
9225;DHT22;4647;48.072;11.616;2022-09-23T12:01:08;18.60;97.80
9225;DHT22;4647;48.072;11.616;2022-09-23T12:03:45;18.50;97.00
9225;DHT22;4647;48.072;11.616;2022-09-23T12:06:14;18.50;97.70
9225;DHT22;4647;48.072;11.616;2022-09-23T12:08:44;18.40;97.30
9225;DHT22;4647;48.072;11.616;2022-09-23T12:11:22;18.40;97.70
9225;DHT22;4647;48.072;11.616;2022-09-23T12:13:56;18.60;97.70
9225;DHT22;4647;48.072;11.616;2022-09-23T12:19:44;18.70;97.10
9225;DHT22;4647;48.072;11.616;2022-09-23T12:22:29;18.60;96.70
9225;DHT22;4647;48.072;11.616;2022-09-23T12:25:16;18.60;96.50
9225;DHT22;4647;48.072;11.616;2022-09-23T12:27:49;18.40;96.50
9225;DHT22;4647;48.072;11.616;2022-09-23T12:30:22;18.50;96.40
9225;DHT22;4647;48.072;11.616;2022-09-23T12:32:50;18.60;96.50
9225;DHT22;4647;48.072;11.616;2022-09-23T12:35:22;18.60;96.30
9225;DHT22;4647;48.072;11.616;2022-09-23T12:37:50;18.60;96.20
9225;DHT22;4647;48.072;11.616;2022-09-23T12:40:22;18.60;96.50
9225;DHT22;4647;48.072;11.616;2022-09-23T12:42:53;18.50;96.20
9225;DHT22;4647;48.072;11.616;2022-09-23T12:45:34;18.40;96.60
9225;DHT22;4647;48.072;11.616;2022-09-23T12:48:23;18.20;96.70
9225;DHT22;4647;48.072;11.616;2022-09-23T12:50:55;18.00;97.30
9225;DHT22;4647;48.072;11.616;2022-09-23T12:57:02;18.20;97.00
9225;DHT22;4647;48.072;11.616;2022-09-23T12:59:53;18.50;97.00
9225;DHT22;4647;48.072;11.616;2022-09-23T13:02:28;18.50;96.30
9225;DHT22;4647;48.072;11.616;2022-09-23T13:05:02;18.80;96.40
9225;DHT22;4647;48.072;11.616;2022-09-23T13:07:49;18.80;96.40
9225;DHT22;4647;48.072;11.616;2022-09-23T13:10:24;19.00;97.20
9225;DHT22;4647;48.072;11.616;2022-09-23T13:12:54;19.00;96.10
9225;DHT22;4647;48.072;11.616;2022-09-23T13:15:27;19.00;95.60
9225;DHT22;4647;48.072;11.616;2022-09-23T13:18:23;18.90;96.30
9225;DHT22;4647;48.072;11.616;2022-09-23T13:20:51;18.90;96.50
9225;DHT22;4647;48.072;11.616;2022-09-23T13:23:21;18.80;96.10
9225;DHT22;4647;48.072;11.616;2022-09-23T13:25:50;18.90;96.10
9225;DHT22;4647;48.072;11.616;2022-09-23T13:28:29;18.80;95.80
9225;DHT22;4647;48.072;11.616;2022-09-23T13:30:57;18.60;96.80
9225;DHT22;4647;48.072;11.616;2022-09-23T13:33:29;18.80;96.40
9225;DHT22;4647;48.072;11.616;2022-09-23T13:36:00;18.80;96.10
9225;DHT22;4647;48.072;11.616;2022-09-23T13:38:29;18.70;96.50
9225;DHT22;4647;48.072;11.616;2022-09-23T13:40:59;18.70;96.20
9225;DHT22;4647;48.072;11.616;2022-09-23T13:43:31;18.70;95.90
9225;DHT22;4647;48.072;11.616;2022-09-23T13:46:00;18.80;95.90
9225;DHT22;4647;48.072;11.616;2022-09-23T13:48:30;18.90;96.20
9225;DHT22;4647;48.072;11.616;2022-09-23T13:50:58;19.20;96.40
9225;DHT22;4647;48.072;11.616;2022-09-23T13:53:31;19.00;95.60
9225;DHT22;4647;48.072;11.616;2022-09-23T13:56:03;18.90;96.30
9225;DHT22;4647;48.072;11.616;2022-09-23T13:58:32;18.70;95.80
9225;DHT22;4647;48.072;11.616;2022-09-23T14:01:00;18.70;96.20
9225;DHT22;4647;48.072;11.616;2022-09-23T14:03:29;18.70;95.80
9225;DHT22;4647;48.072;11.616;2022-09-23T14:05:57;18.70;96.30
9225;DHT22;4647;48.072;11.616;2022-09-23T14:08:25;18.70;95.80
9225;DHT22;4647;48.072;11.616;2022-09-23T14:10:53;18.60;96.10
9225;DHT22;4647;48.072;11.616;2022-09-23T14:13:22;18.70;96.50
9225;DHT22;4647;48.072;11.616;2022-09-23T14:15:53;18.50;96.20
9225;DHT22;4647;48.072;11.616;2022-09-23T14:18:29;18.70;96.40
9225;DHT22;4647;48.072;11.616;2022-09-23T14:20:58;19.00;96.30
9225;DHT22;4647;48.072;11.616;2022-09-23T14:23:25;19.20;95.70
9225;DHT22;4647;48.072;11.616;2022-09-23T14:25:52;19.20;95.90
9225;DHT22;4647;48.072;11.616;2022-09-23T14:28:21;18.90;96.30
9225;DHT22;4647;48.072;11.616;2022-09-23T14:30:51;19.00;96.40
9225;DHT22;4647;48.072;11.616;2022-09-23T14:33:24;18.90;94.90
9225;DHT22;4647;48.072;11.616;2022-09-23T14:35:52;18.80;93.70
9225;DHT22;4647;48.072;11.616;2022-09-23T14:38:22;18.80;94.60
9225;DHT22;4647;48.072;11.616;2022-09-23T14:41:28;18.90;93.90
9225;DHT22;4647;48.072;11.616;2022-09-23T14:44:00;18.80;92.50
9225;DHT22;4647;48.072;11.616;2022-09-23T14:46:30;18.70;92.50
9225;DHT22;4647;48.072;11.616;2022-09-23T14:49:02;18.50;93.10
9225;DHT22;4647;48.072;11.616;2022-09-23T14:51:35;18.50;93.70
9225;DHT22;4647;48.072;11.616;2022-09-23T14:54:31;18.70;93.80
9225;DHT22;4647;48.072;11.616;2022-09-23T14:57:00;18.70;93.50
9225;DHT22;4647;48.072;11.616;2022-09-23T14:59:31;18.80;92.70
9225;DHT22;4647;48.072;11.616;2022-09-23T15:02:00;18.70;93.20
9225;DHT22;4647;48.072;11.616;2022-09-23T15:04:30;18.60;93.50
9225;DHT22;4647;48.072;11.616;2022-09-23T15:06:59;18.60;93.40
9225;DHT22;4647;48.072;11.616;2022-09-23T15:09:29;18.60;93.70
9225;DHT22;4647;48.072;11.616;2022-09-23T15:11:59;18.60;93.20
9225;DHT22;4647;48.072;11.616;2022-09-23T15:14:29;18.60;92.30
9225;DHT22;4647;48.072;11.616;2022-09-23T15:17:02;18.50;92.80
9225;DHT22;4647;48.072;11.616;2022-09-23T15:19:29;18.50;93.20
9225;DHT22;4647;48.072;11.616;2022-09-23T15:21:56;18.40;93.00
9225;DHT22;4647;48.072;11.616;2022-09-23T15:24:34;18.40;93.50
9225;DHT22;4647;48.072;11.616;2022-09-23T15:27:02;18.40;93.70
9225;DHT22;4647;48.072;11.616;2022-09-23T15:29:34;18.40;94.50
9225;DHT22;4647;48.072;11.616;2022-09-23T15:32:03;18.30;94.80
9225;DHT22;4647;48.072;11.616;2022-09-23T15:34:33;18.30;94.50
9225;DHT22;4647;48.072;11.616;2022-09-23T15:37:00;18.30;94.10
9225;DHT22;4647;48.072;11.616;2022-09-23T15:39:27;18.30;93.60
9225;DHT22;4647;48.072;11.616;2022-09-23T15:41:55;18.20;93.70
9225;DHT22;4647;48.072;11.616;2022-09-23T15:44:23;18.10;94.60
9225;DHT22;4647;48.072;11.616;2022-09-23T15:46:54;18.00;94.00
9225;DHT22;4647;48.072;11.616;2022-09-23T15:49:30;17.90;94.70
9225;DHT22;4647;48.072;11.616;2022-09-23T15:51:58;17.90;94.60
9225;DHT22;4647;48.072;11.616;2022-09-23T15:54:26;17.90;94.50
9225;DHT22;4647;48.072;11.616;2022-09-23T15:56:53;17.90;94.70
9225;DHT22;4647;48.072;11.616;2022-09-23T15:59:21;17.90;94.60
9225;DHT22;4647;48.072;11.616;2022-09-23T16:01:49;17.80;94.50
9225;DHT22;4647;48.072;11.616;2022-09-23T16:04:16;17.80;94.70
9225;DHT22;4647;48.072;11.616;2022-09-23T16:06:45;17.70;95.00
9225;DHT22;4647;48.072;11.616;2022-09-23T16:09:13;17.70;95.30
9225;DHT22;4647;48.072;11.616;2022-09-23T16:11:42;17.60;95.30
9225;DHT22;4647;48.072;11.616;2022-09-23T16:14:12;17.50;95.60
9225;DHT22;4647;48.072;11.616;2022-09-23T16:16:40;17.40;95.80
9225;DHT22;4647;48.072;11.616;2022-09-23T16:19:09;17.40;96.00
9225;DHT22;4647;48.072;11.616;2022-09-23T16:21:36;17.20;96.50
9225;DHT22;4647;48.072;11.616;2022-09-23T16:24:11;17.20;96.80
9225;DHT22;4647;48.072;11.616;2022-09-23T16:26:40;17.00;97.10
9225;DHT22;4647;48.072;11.616;2022-09-23T16:29:08;16.90;97.30
9225;DHT22;4647;48.072;11.616;2022-09-23T16:31:36;16.80;97.60
9225;DHT22;4647;48.072;11.616;2022-09-23T16:34:03;16.60;98.40
9225;DHT22;4647;48.072;11.616;2022-09-23T16:36:32;16.40;98.90
9225;DHT22;4647;48.072;11.616;2022-09-23T16:39:03;16.30;99.70